Tiempo atmosférico en la estación meteorológica de Montanejos, Castelló/Castellón (601 m.)



Fecha
DESCASC
Temp. máxima en grados centígrados (hora)
DESCASC
Temp. mínima en grados centígrados (hora)
DESCASC
Temp. media en grados centígrados
DESCASC
Racha de viento máxima en m/sg (hora)
DESCASC
Velocidad máxima media en intervalos de 10 minutos(hora)
DESCASC
Precipitaciones diarias en mm
DESCASC
Precipitaciones de 00:00 a 06:00 en mm
DESCASC
Precipitaciones de 06:00 a 12:00 en mm
DESCASC
Precipitaciones de 12:00 a 18:00 en mm
DESCASC
Precipitaciones de 18:00 a 24:00 en mm
DESCASC
11-12-2019 15.2 (12:30) 4.8 (05:00) 10 23.06 (16:20) 12.78 (16:30) 0 0 0 0 0
10-12-2019 16.4 (15:00) 6.5 (08:20) 11.4 13.33 (00:30) 8.06 (00:10) 0 0 0 0 0
09-12-2019 14.4 (13:00) 9.3 (07:40) 11.8 23.06 (15:10) 10.83 (14:40) 0 0 0 0 0
08-12-2019 16.8 (14:40) 3.7 (00:00) 10.2 10 (17:10) 6.11 (17:20) 0 0 0 0 0
07-12-2019 15.1 (14:30) 3.7 (00:00) 9.4 6.11 (15:10) 3.33 (15:10) 0 0 0 0 0
06-12-2019 11.8 (15:30) 6.6 (00:00) 9.2 3.33 (12:50) 2.22 (12:50) 2.8 2.6 0.2 0 0
05-12-2019 11.2 (14:30) 7.3 (00:00) 9.3 6.94 (15:20) 3.89 (15:20) 5 1.8 0 0 3.2
04-12-2019 9.1 (15:10) 6.2 (00:00) 7.7 6.67 (07:00) 2.22 (06:00) 35 14.2 16 2 2.8
03-12-2019 8.3 (16:10) 5.6 (00:00) 7 3.89 (05:50) 2.5 (03:50) 7 0 0 0.6 6.4
02-12-2019 10.1 (16:10) 5.1 (00:00) 7.6 5.83 (16:30) 3.89 (16:20) 0.2 0 0.2 0 0
01-12-2019 14.7 (15:00) 6.3 (00:00) 10.5 11.11 (01:30) 5.28 (01:30) 0 0 0 0 0
30-11-2019 19.3 (15:10) 6.9 (00:00) 13.1 9.17 (22:40) 5.28 (22:30) 0 0 0 0 0
29-11-2019 -- (--) -- (--) -- -- (--) -- (--) -- 0 0 0 --
28-11-2019 15.7 (14:40) 9.3 (00:00) 12.5 15.56 (05:50) 8.06 (13:20) 0 0 0 0 0
27-11-2019 17 (14:00) 11.3 (00:00) 14.2 14.17 (19:30) 8.61 (19:20) 0 0 0 0 0
26-11-2019 20.8 (15:00) 5.9 (00:00) 13.3 11.11 (22:40) 5 (22:40) 0 0 0 0 0
25-11-2019 17.4 (14:40) 7.5 (00:00) 12.4 15.56 (13:30) 8.61 (13:30) 0 0 0 0 0
24-11-2019 12.3 (15:20) 7.4 (00:00) 9.9 24.17 (01:00) 15.56 (00:50) 0 0 0 0 0
23-11-2019 11.7 (17:00) 7.9 (00:00) 9.8 20.83 (15:30) 11.39 (15:50) 0.6 0.4 0 0.2 0
22-11-2019 11.1 (15:20) 4.3 (00:00) 7.7 6.67 (21:00) 4.72 (21:00) 2 0 0 1.4 0.6
21-11-2019 12.7 (16:10) 3.3 (00:00) 8 5.83 (12:50) 3.33 (12:50) 0 0 0 0 0
20-11-2019 13.5 (14:40) 1.4 (00:00) 7.4 6.11 (15:20) 3.33 (15:20) 0 0 0 0 0
19-11-2019 11.8 (15:10) 3.3 (00:00) 7.6 11.39 (13:50) 7.5 (13:50) 0 0 0 0 0
18-11-2019 10.2 (14:20) 6.2 (00:00) 8.2 13.89 (12:10) 8.61 (12:10) 0.4 0.4 0 0 0
17-11-2019 13.6 (15:00) 5.5 (00:00) 9.6 11.11 (09:50) 7.22 (09:30) 0 0 0 0 0
16-11-2019 11.2 (14:00) 3.2 (00:00) 7.2 10.56 (15:50) 6.67 (17:10) 0 0 0 0 0
15-11-2019 10 (15:20) 4.1 (00:00) 7 11.39 (08:10) 6.67 (10:40) 0.2 0 0.2 0 0

Gráficas

Temp. máximas Temp. mínimas Temp. medias Precipitaciones Rachas de viento máximas Velocidades máximas media en intervalos de 10 minutos

Datos horarios

Fecha y hora oficial Temperatura (ºC) Velocidad del viento (km/h) Dirección del viento Racha (km/h) Dirección de racha Precipitación (mm) Presión (hPa) Tendencia (hPa) Humedad (%)
2019-12-14 23:00:00 10.5 9 Noroeste 19 Noroeste 0 -- -- 60
2019-12-14 22:00:00 11.1 14 Noroeste 28 Oeste 0 -- -- 61
2019-12-14 21:00:00 11.6 7 Noroeste 17 Noroeste 0 -- -- 63
2019-12-14 20:00:00 11.9 5 Norte 13 Noroeste 0 -- -- 63
2019-12-14 19:00:00 11.9 5 Norte 14 Noroeste 0 -- -- 62
2019-12-14 18:00:00 12.6 3 Noroeste 14 Norte 0 -- -- 61
2019-12-14 17:00:00 13.9 6 Noroeste 14 Oeste 0 -- -- 56
2019-12-14 16:00:00 14.7 5 Oeste 15 Sudoeste 0 -- -- 51
2019-12-14 15:00:00 15 9 Oeste 27 Oeste 0 -- -- 49
2019-12-14 14:00:00 14.7 12 Noroeste 38 Noroeste 0 -- -- 50
2019-12-14 13:00:00 13.5 17 Noroeste 34 Noroeste 0 -- -- 54
2019-12-14 12:00:00 13.2 15 Noroeste 42 Noroeste 0 -- -- 57
2019-12-14 11:00:00 13.1 23 Noroeste 36 Noroeste 0 -- -- 56
2019-12-14 10:00:00 12.6 14 Noroeste 38 Noroeste 0 -- -- 56
2019-12-14 09:00:00 11.5 21 Noroeste 55 Noroeste 0 -- -- 59
2019-12-14 08:00:00 12 32 Noroeste 73 Noroeste 0 -- -- 58
2019-12-14 07:00:00 12.3 33 Noroeste 62 Noroeste 0 -- -- 58
2019-12-14 06:00:00 11.7 32 Noroeste 48 Noroeste 0 -- -- 60
2019-12-14 05:00:00 12.7 32 Noroeste 59 Oeste 0 -- -- 57
2019-12-14 04:00:00 12.5 26 Noroeste 51 Norte 0 -- -- 60
2019-12-14 03:00:00 12.9 25 Noroeste 55 Noroeste 0 -- -- 60
2019-12-14 02:00:00 13.2 27 Noroeste 54 Noroeste 0 -- -- 58
2019-12-14 01:00:00 13.5 27 Noroeste 46 Noroeste 0 -- -- 58
2019-12-14 00:00:00 14 28 Noroeste 57 Norte 0 -- -- 58
2019-12-13 23:00:00 14.6 23 Noroeste 46 Noroeste 0 -- -- 58
2019-12-13 22:00:00 15.1 22 Noroeste 44 Noroeste 0 -- -- 60
2019-12-13 21:00:00 15.3 25 Noroeste 58 Noroeste 0 -- -- 59
2019-12-13 20:00:00 15.7 31 Noroeste 60 Noroeste 0 -- -- 58
2019-12-13 19:00:00 16.1 27 Noroeste 63 Oeste 0 -- -- 56
2019-12-13 18:00:00 16.4 29 Noroeste 53 Oeste 0 -- -- 55
2019-12-13 17:00:00 16.9 24 Noroeste 53 Norte 0 -- -- 53
2019-12-13 16:00:00 16.9 31 Noroeste 62 Oeste 0 -- -- 52
2019-12-13 15:00:00 17.1 33 Noroeste 81 Noroeste 0 -- -- 51
2019-12-13 14:00:00 17.2 35 Noroeste 93 Noroeste 0 -- -- 50
2019-12-13 13:00:00 17.2 52 Noroeste 104 Noroeste 0 -- -- 51
2019-12-13 12:00:00 16.3 43 Noroeste 100 Noroeste 0 -- -- 54
2019-12-13 11:00:00 15.6 32 Noroeste 66 Oeste 0 -- -- 56
2019-12-13 10:00:00 15.1 38 Noroeste 71 Noroeste 0 -- -- 57
2019-12-13 09:00:00 15.1 33 Noroeste 82 Noroeste 0 -- -- 59
2019-12-13 08:00:00 15.2 40 Norte 72 Noroeste 0 -- -- 59
2019-12-13 07:00:00 15.1 35 Noroeste 64 Noroeste 0 -- -- 60
2019-12-13 06:00:00 14.9 34 Noroeste 64 Noroeste 0 -- -- 61
2019-12-13 05:00:00 15 31 Noroeste 72 Norte 0 -- -- 59
2019-12-13 04:00:00 14.9 36 Noroeste 70 Noroeste 0 -- -- 58
2019-12-13 03:00:00 13.7 27 Noroeste 77 Norte 0 -- -- 62
2019-12-13 02:00:00 13.4 34 Norte 58 Norte 0 -- -- 61
2019-12-13 01:00:00 12.8 28 Noroeste 57 Noroeste 0 -- -- 61
2019-12-13 00:00:00 11.9 19 Noroeste 48 Norte 0 -- -- 61
2019-12-12 23:00:00 11 12 Noroeste 51 Noroeste 0 -- -- 63
2019-12-12 22:00:00 10.4 20 Noroeste 45 Norte 0 -- -- 66
2019-12-12 21:00:00 9.1 18 Noroeste 41 Noroeste 0 -- -- 70
2019-12-12 20:00:00 8.7 26 Noroeste 45 Noroeste 0 -- -- 72
2019-12-12 19:00:00 8.3 25 Noroeste 43 Norte 0.2 -- -- 74
2019-12-12 18:00:00 8.2 21 Norte 37 Noroeste 0 -- -- 73
2019-12-12 17:00:00 8.5 17 Noroeste 38 Noroeste 0 -- -- 75
2019-12-12 16:00:00 9.6 27 Noroeste 55 Oeste 0 -- -- 64
2019-12-12 15:00:00 11.2 23 Noroeste 43 Oeste 0 -- -- 52
2019-12-12 14:00:00 11.6 13 Noroeste 32 Noroeste 0 -- -- 50
2019-12-12 13:00:00 11.3 15 Noroeste 37 Noroeste 0 -- -- 52
2019-12-12 12:00:00 10.3 13 Noroeste 27 Noroeste 0 -- -- 55
2019-12-12 11:00:00 8.8 13 Noroeste 34 Noroeste 0 -- -- 56
2019-12-12 10:00:00 8.2 17 Noroeste 34 Noroeste 0 -- -- 57
2019-12-12 09:00:00 7.3 10 Noroeste 29 Noroeste 0 -- -- 61
2019-12-12 08:00:00 7.4 12 Noroeste 30 Oeste 0 -- -- 60
2019-12-12 07:00:00 7 13 Norte 26 Noroeste 0 -- -- 62
2019-12-12 06:00:00 7.1 14 Noroeste 27 Oeste 0 -- -- 62
2019-12-12 05:00:00 7.3 11 Noroeste 18 Noroeste 0 -- -- 61
2019-12-12 04:00:00 7.3 6 Norte 18 Norte 0 -- -- 59
2019-12-12 03:00:00 7.5 9 Noroeste 19 Noroeste 0 -- -- 59
2019-12-12 02:00:00 7.5 8 Noroeste 27 Norte 0 -- -- 58
2019-12-12 01:00:00 7.9 17 Noroeste 32 Noroeste 0 -- -- 56
2019-12-12 00:00:00 7.6 15 Noroeste 36 Oeste 0 -- -- 58
2019-12-11 23:00:00 7.8 13 Noroeste 30 Oeste 0 -- -- 57
2019-12-11 22:00:00 8 12 Noroeste 32 Oeste 0 -- -- 60
2019-12-11 21:00:00 8.1 22 Noroeste 40 Oeste 0 -- -- 58
2019-12-11 20:00:00 8.6 21 Noroeste 56 Norte 0 -- -- 57
2019-12-11 19:00:00 9.6 19 Noroeste 68 Norte 0 -- -- 56
2019-12-11 18:00:00 9.7 27 Noroeste 66 Noroeste 0 -- -- 60
2019-12-11 17:00:00 9.8 26 Noroeste 83 Noroeste 0 -- -- 65
2019-12-11 16:00:00 12.3 27 Noroeste 56 Noroeste 0 -- -- 57
2019-12-11 15:00:00 13.8 24 Noroeste 40 Noroeste 0 -- -- 54
2019-12-11 14:00:00 14.2 22 Noroeste 46 Noroeste 0 -- -- 47
2019-12-11 13:00:00 14.9 19 Noroeste 33 Noroeste 0 -- -- 40
2019-12-11 12:00:00 14.6 12 Noroeste 32 Noroeste 0 -- -- 38
2019-12-11 11:00:00 9.9 3 Noroeste 6 Oeste 0 -- -- 51
2019-12-11 10:00:00 7.9 0 Calma 9 Oeste 0 -- -- 54
2019-12-11 09:00:00 6.3 5 Noroeste 15 Noroeste 0 -- -- 59
2019-12-11 08:00:00 7.2 6 Norte 12 Norte 0 -- -- 51
2019-12-11 07:00:00 6.6 6 Noroeste 11 Norte 0 -- -- 54
2019-12-11 06:00:00 4.9 2 Nordeste 6 Norte 0 -- -- 66
2019-12-11 05:00:00 4.8 0 Calma 5 Noroeste 0 -- -- 69
2019-12-11 04:00:00 5.6 3 Norte 5 Noroeste 0 -- -- 65
2019-12-11 03:00:00 7 0 Calma 7 Noroeste 0 -- -- 60
2019-12-11 02:00:00 9 2 Noroeste 17 Noroeste 0 -- -- 50
2019-12-11 01:00:00 9.1 6 Noroeste 12 Noroeste 0 -- -- 51
2019-12-11 00:00:00 8.7 0 Calma 6 Noroeste 0 -- -- 50
2019-12-10 23:00:00 9 0 Calma 16 Noroeste 0 -- -- 51
2019-12-10 22:00:00 10.8 3 Sur 19 Noroeste 0 -- -- 43
2019-12-10 21:00:00 12.4 11 Norte 25 Noroeste 0 -- -- 38
2019-12-10 20:00:00 12.7 13 Norte 24 Norte 0 -- -- 41
2019-12-10 19:00:00 13.1 11 Norte 28 Noroeste 0 -- -- 41
2019-12-10 18:00:00 13.6 14 Noroeste 27 Oeste 0 -- -- 38
2019-12-10 17:00:00 14.2 2 Norte 17 Norte 0 -- -- 38
2019-12-10 16:00:00 15.2 4 Oeste 22 Norte 0 -- -- 34
2019-12-10 15:00:00 16.4 12 Noroeste 33 Noroeste 0 -- -- 33
2019-12-10 14:00:00 14.9 15 Noroeste 40 Noroeste 0 -- -- 35
2019-12-10 13:00:00 12.6 17 Norte 32 Noroeste 0 -- -- 42
2019-12-10 12:00:00 11.1 19 Noroeste 35 Noroeste 0 -- -- 48
2019-12-10 11:00:00 10.5 16 Noroeste 26 Noroeste 0 -- -- 47
2019-12-10 10:00:00 9.4 14 Norte 28 Norte 0 -- -- 51
2019-12-10 09:00:00 8.1 12 Norte 31 Noroeste 0 -- -- 54
2019-12-10 08:00:00 6.8 6 Sudeste 10 Noroeste 0 -- -- 56
2019-12-10 07:00:00 8.6 4 Norte 22 Noroeste 0 -- -- 50
2019-12-10 06:00:00 8.6 8 Noroeste 27 Oeste 0 -- -- 49
2019-12-10 05:00:00 8.7 15 Noroeste 33 Oeste 0 -- -- 52
2019-12-10 04:00:00 8.4 13 Noroeste 26 Noroeste 0 -- -- 56
2019-12-10 03:00:00 8.7 14 Oeste 36 Oeste 0 -- -- 56
2019-12-10 02:00:00 9.4 14 Noroeste 35 Oeste 0 -- -- 51
2019-12-10 01:00:00 10.2 21 Noroeste 48 Norte 0 -- -- 50
2019-12-10 00:00:00 10.4 30 Noroeste 51 Noroeste 0 -- -- 49
2019-12-09 23:00:00 10.2 32 Noroeste 57 Oeste 0 -- -- 55
2019-12-09 22:00:00 10.5 33 Noroeste 55 Noroeste 0 -- -- 55
2019-12-09 21:00:00 10.7 22 Noroeste 39 Noroeste 0 -- -- 56
2019-12-09 20:00:00 11 21 Noroeste 45 Noroeste 0 -- -- 56
2019-12-09 19:00:00 11.4 23 Noroeste 57 Noroeste 0 -- -- 56
2019-12-09 18:00:00 11.7 26 Noroeste 51 Noroeste 0 -- -- 52
2019-12-09 17:00:00 12.7 27 Noroeste 69 Noroeste 0 -- -- 48
2019-12-09 16:00:00 13 23 Noroeste 83 Norte 0 -- -- 41
2019-12-09 15:00:00 14 26 Noroeste 69 Norte 0 -- -- 38
2019-12-09 14:00:00 14 35 Noroeste 68 Noroeste 0 -- -- 38
2019-12-09 13:00:00 14.4 34 Noroeste 63 Noroeste 0 -- -- 36
2019-12-09 12:00:00 13.8 26 Noroeste 48 Noroeste 0 -- -- 37
2019-12-09 11:00:00 12.8 17 Noroeste 35 Oeste 0 -- -- 40
2019-12-09 10:00:00 10.8 15 Noroeste 41 Oeste 0 -- -- 52
2019-12-09 09:00:00 10 20 Noroeste 38 Oeste 0 -- -- 54
2019-12-09 08:00:00 9.6 14 Noroeste 28 Oeste 0 -- -- 58
2019-12-09 07:00:00 9.8 17 Noroeste 36 Noroeste 0 -- -- 63
2019-12-09 06:00:00 10.5 23 Noroeste 37 Noroeste 0 -- -- 63
2019-12-09 05:00:00 10.9 27 Noroeste 48 Noroeste 0 -- -- 64
2019-12-09 04:00:00 11.1 30 Noroeste 53 Noroeste 0 -- -- 65
2019-12-09 03:00:00 11.5 31 Noroeste 47 Noroeste 0 -- -- 68
2019-12-09 02:00:00 12 25 Noroeste 40 Noroeste 0 -- -- 69
2019-12-09 01:00:00 12.6 21 Noroeste 39 Oeste 0 -- -- 68
2019-12-09 00:00:00 13 13 Noroeste 33 Noroeste 0 -- -- 71
2019-12-08 23:00:00 13.5 11 Noroeste 24 Noroeste 0 -- -- 69
2019-12-08 22:00:00 13.7 14 Noroeste 31 Noroeste 0 -- -- 70
2019-12-08 21:00:00 13.9 16 Noroeste 26 Oeste 0 -- -- 67
2019-12-08 20:00:00 13.7 7 Noroeste 17 Oeste 0 -- -- 68
2019-12-08 19:00:00 13.7 4 Noroeste 20 Noroeste 0 -- -- 66
2019-12-08 18:00:00 14.3 12 Norte 36 Noroeste 0 -- -- 61
2019-12-08 17:00:00 15.4 18 Noroeste 31 Oeste 0 -- -- 55
2019-12-08 16:00:00 15.8 12 Noroeste 27 Oeste 0 -- -- 53
2019-12-08 15:00:00 16.8 15 Noroeste 29 Oeste 0 -- -- 45
2019-12-08 14:00:00 16.6 12 Noroeste 28 Oeste 0 -- -- 49
2019-12-08 13:00:00 15.6 7 Noroeste 16 Noroeste 0 -- -- 54
2019-12-08 12:00:00 13.3 6 Norte 10 Noroeste 0 -- -- 65
2019-12-08 11:00:00 10.6 0 Calma 4 Este 0 -- -- 72
2019-12-08 10:00:00 6.2 0 Calma 4 Nordeste 0 -- -- 95
2019-12-08 09:00:00 4 0 Calma 7 Norte 0 -- -- 96
2019-12-08 08:00:00 3.7 0 Calma 9 Noroeste 0 -- -- 96
2019-12-08 07:00:00 4.2 6 Noroeste 13 Noroeste 0 -- -- 95
2019-12-08 06:00:00 3.9 2 Oeste 9 Noroeste 0 -- -- 96
2019-12-08 05:00:00 4.1 4 Noroeste 9 Noroeste 0 -- -- 95
2019-12-08 04:00:00 4.2 3 Norte 8 Noroeste 0 -- -- 94
2019-12-08 03:00:00 4.7 5 Noroeste 10 Noroeste 0 -- -- 93
2019-12-08 02:00:00 5.1 4 Noroeste 13 Noroeste 0 -- -- 93
2019-12-08 01:00:00 5.3 7 Noroeste 13 Noroeste 0 -- -- 94
2019-12-08 00:00:00 5.3 2 Noroeste 5 Oeste 0 -- -- 96
2019-12-07 23:00:00 5.6 0 Calma 4 Noroeste 0 -- -- 95
2019-12-07 22:00:00 6.4 0 Calma 9 Noroeste 0 -- -- 94
2019-12-07 21:00:00 7 2 Noroeste 5 Oeste 0 -- -- 95
2019-12-07 20:00:00 7.7 0 Calma 5 Norte 0 -- -- 94
2019-12-07 19:00:00 8.7 3 Norte 6 Norte 0 -- -- 92
2019-12-07 18:00:00 10.2 3 Norte 6 Norte 0 -- -- 87
2019-12-07 17:00:00 11.8 3 Sudeste 14 Sur 0 -- -- 78
2019-12-07 16:00:00 13 12 Sur 22 Sur 0 -- -- 71
2019-12-07 15:00:00 14.8 9 Sur 16 Sur 0 -- -- 62
2019-12-07 14:00:00 13.7 3 Sudoeste 6 Noroeste 0 -- -- 67
2019-12-07 13:00:00 11.1 0 Calma 4 Noroeste 0 -- -- 75
2019-12-07 12:00:00 9 2 Norte 4 Noroeste 0 -- -- 83
2019-12-07 11:00:00 6.9 0 Calma 4 Noroeste 0 -- -- 88
2019-12-07 10:00:00 5 0 Calma 8 Noroeste 0 -- -- 95
2019-12-07 09:00:00 3.9 4 Noroeste 10 Noroeste 0 -- -- 96
2019-12-07 08:00:00 3.9 5 Noroeste 12 Noroeste 0 -- -- 95
2019-12-07 07:00:00 4.2 7 Noroeste 13 Norte 0 -- -- 95
2019-12-07 06:00:00 4.5 9 Norte 15 Noroeste 0 -- -- 94
2019-12-07 05:00:00 5.1 4 Noroeste 9 Noroeste 0 -- -- 94
2019-12-07 04:00:00 5.2 0 Calma 10 Norte 0 -- -- 96
2019-12-07 03:00:00 5.6 3 Norte 8 Noroeste 0 -- -- 98
2019-12-07 02:00:00 5.7 0 Calma 7 Norte 0 -- -- 98
2019-12-07 01:00:00 6.2 0 Calma 4 Noroeste 0 -- -- 98
2019-12-07 00:00:00 6.6 0 Calma 6 Norte 0 -- -- 97
2019-12-06 23:00:00 7.1 0 Calma 6 Noroeste 0 -- -- 97
2019-12-06 22:00:00 8 3 Noroeste 8 Noroeste 0 -- -- 97
2019-12-06 21:00:00 8.6 4 Noroeste 8 Noroeste 0 -- -- 97
2019-12-06 20:00:00 8.9 0 Calma 5 Norte 0 -- -- 97
2019-12-06 19:00:00 8.8 0 Calma 4 Este 0 -- -- 94
2019-12-06 18:00:00 10.3 2 Sudeste 8 Sur 0 -- -- 92
2019-12-06 17:00:00 11.2 2 Sur 7 Sur 0 -- -- 88
2019-12-06 16:00:00 11.6 4 Sur 11 Sur 0 -- -- 85
2019-12-06 15:00:00 11.6 5 Sur 10 Sur 0 -- -- 81
2019-12-06 14:00:00 11.4 3 Sur 9 Sur 0 -- -- 82
2019-12-06 13:00:00 10.9 7 Sur 12 Sur 0 -- -- 87
2019-12-06 12:00:00 9.7 3 Oeste 5 Oeste 0 -- -- 94
2019-12-06 11:00:00 9.2 0 Calma 5 Noroeste 0 -- -- 96
2019-12-06 10:00:00 8.6 2 Noroeste 8 Noroeste 0 -- -- 98
2019-12-06 09:00:00 8.4 0 Calma 7 Noroeste 0 -- -- 98
2019-12-06 08:00:00 8.2 2 Noroeste 5 Noroeste 0.2 -- -- 98
2019-12-06 07:00:00 8.3 0 Calma 4 Norte 0 -- -- 99
2019-12-06 06:00:00 8.3 0 Calma 4 Noroeste 0 -- -- 98
2019-12-06 05:00:00 8.3 0 Calma 3 Sudeste 0 -- -- 98
2019-12-06 04:00:00 8.3 0 Calma 5 Noroeste 0.4 -- -- 98
2019-12-06 03:00:00 8.3 0 Calma 6 Norte 0.4 -- -- 98
2019-12-06 02:00:00 8.3 0 Calma 5 Noroeste 0.6 -- -- 98
2019-12-06 01:00:00 8.4 0 Calma 4 Noroeste 1.2 -- -- 98
2019-12-06 00:00:00 8.5 0 Calma 2 Oeste 1 -- -- 98
2019-12-05 23:00:00 8.5 0 Calma 2 Sudoeste 1 -- -- 97
2019-12-05 22:00:00 8.7 0 Calma 4 Sur 0.6 -- -- 97
2019-12-05 21:00:00 9.1 0 Calma 4 Noroeste 0.6 -- -- 95
2019-12-05 20:00:00 9.2 0 Calma 3 Noroeste 0 -- -- 94
2019-12-05 19:00:00 9.4 0 Calma 6 Sudeste 0 -- -- 93
2019-12-05 18:00:00 9.7 0 Calma 6 Sur 0 -- -- 91
2019-12-05 17:00:00 10 4 Sur 19 Sur 0 -- -- 89
2019-12-05 16:00:00 10.4 8 Sur 25 Sur 0 -- -- 87
2019-12-05 15:00:00 10.9 12 Sur 17 Sur 0 -- -- 85
2019-12-05 14:00:00 11.1 6 Sur 12 Sur 0 -- -- 86
2019-12-05 13:00:00 10.4 3 Sur 18 Sur 0 -- -- 86
2019-12-05 12:00:00 9.3 0 Calma 5 Sudeste 0 -- -- 95
2019-12-05 11:00:00 8.4 0 Calma 4 Noroeste 0 -- -- 95
2019-12-05 10:00:00 7.9 0 Calma 7 Norte 0 -- -- 97
2019-12-05 09:00:00 7.6 2 Nordeste 8 Noroeste 0 -- -- 98
2019-12-05 08:00:00 7.6 3 Noroeste 6 Noroeste 0 -- -- 98
2019-12-05 07:00:00 7.6 0 Calma 5 Noroeste 0 -- -- 98
2019-12-05 06:00:00 7.5 0 Calma 3 Sudeste 0.2 -- -- 98
2019-12-05 05:00:00 7.4 0 Calma 2 Sur 0.4 -- -- 98
2019-12-05 04:00:00 7.4 0 Calma 4 Norte 0 -- -- 97
2019-12-05 03:00:00 7.5 0 Calma 9 Noroeste 0.2 -- -- 96
2019-12-05 02:00:00 7.5 3 Noroeste 6 Norte 0.8 -- -- 97
2019-12-05 01:00:00 7.4 2 Norte 6 Norte 0.2 -- -- 97
2019-12-05 00:00:00 7.6 0 Calma 5 Noroeste 0 -- -- 96
2019-12-04 23:00:00 7.5 0 Calma 5 Norte 1.2 -- -- 95
2019-12-04 22:00:00 8.2 2 Este 8 Noroeste 0.4 -- -- 89
2019-12-04 21:00:00 7.4 4 Noroeste 13 Sudoeste 0 -- -- 94
2019-12-04 20:00:00 7.3 0 Calma 8 Noroeste 0 -- -- 94
2019-12-04 19:00:00 7.7 5 Noroeste 11 Norte 1.2 -- -- 93
2019-12-04 18:00:00 7.9 4 Noroeste 10 Noroeste 0.6 -- -- 95
2019-12-04 17:00:00 7.9 2 Norte 6 Noroeste 0.4 -- -- 93
2019-12-04 16:00:00 8.5 4 Sur 10 Norte 0.8 -- -- 89
2019-12-04 15:00:00 9 0 Calma 8 Oeste 0 -- -- 90
2019-12-04 14:00:00 8.6 3 Sudeste 12 Oeste 0 -- -- 90
2019-12-04 13:00:00 7.8 3 Oeste 18 Oeste 0.2 -- -- 87
2019-12-04 12:00:00 6.8 2 Sur 15 Sur 1.8 -- -- 92
2019-12-04 11:00:00 6.6 4 Sudoeste 12 Sur 2 -- -- 89
2019-12-04 10:00:00 6.7 4 Sudoeste 11 Noroeste 0.6 -- -- 93
2019-12-04 09:00:00 6.2 0 Calma 12 Oeste 2.4 -- -- 93
2019-12-04 08:00:00 6.7 6 Sudoeste 21 Sudoeste 5.4 -- -- 86
2019-12-04 07:00:00 7.5 7 Sur 24 Sur 3.8 -- -- 88
2019-12-04 06:00:00 7.7 8 Oeste 15 Noroeste 1.6 -- -- 89
2019-12-04 05:00:00 7.6 3 Oeste 12 Oeste 1.8 -- -- 88
2019-12-04 04:00:00 7.6 4 Noroeste 19 Oeste 3 -- -- 91
2019-12-04 03:00:00 7.4 3 Oeste 12 Oeste 2.8 -- -- 94
2019-12-04 02:00:00 7.1 2 Oeste 12 Noroeste 3.4 -- -- 97
2019-12-04 01:00:00 7 4 Norte 10 Noroeste 1.6 -- -- 96
2019-12-04 00:00:00 6.6 5 Noroeste 14 Noroeste 0.6 -- -- 94
2019-12-03 23:00:00 6.3 4 Noroeste 14 Noroeste 2.6 -- -- 95
2019-12-03 22:00:00 6.2 5 Noroeste 11 Oeste 2 -- -- 94
2019-12-03 21:00:00 6.1 0 Calma 12 Noroeste 0.4 -- -- 94
2019-12-03 20:00:00 6.2 0 Calma 4 Sudoeste 0.8 -- -- 95
2019-12-03 19:00:00 6.4 0 Calma 6 Sudeste 0 -- -- 93
2019-12-03 18:00:00 7 0 Calma 4 Noroeste 0.6 -- -- 88
2019-12-03 17:00:00 8.3 0 Calma 6 Sur 0 -- -- 75
2019-12-03 16:00:00 8.2 0 Calma 4 Sur 0 -- -- 73
2019-12-03 15:00:00 7.6 2 Sudoeste 13 Sur 0 -- -- 77
2019-12-03 14:00:00 7.6 6 Sur 10 Sur 0 -- -- 78
2019-12-03 13:00:00 7.8 0 Calma 7 Sur 0 -- -- 77
2019-12-03 12:00:00 7.9 0 Calma 4 Noroeste 0 -- -- 74
2019-12-03 11:00:00 7 3 Norte 8 Noroeste 0 -- -- 75
2019-12-03 10:00:00 6.5 4 Noroeste 11 Noroeste 0 -- -- 78
2019-12-03 09:00:00 6.4 7 Noroeste 13 Noroeste 0 -- -- 78
2019-12-03 08:00:00 6.3 4 Noroeste 14 Noroeste 0 -- -- 79
2019-12-03 07:00:00 6.3 7 Norte 14 Noroeste 0 -- -- 80
2019-12-03 06:00:00 6.3 8 Noroeste 14 Noroeste 0 -- -- 82
2019-12-03 05:00:00 6.1 6 Noroeste 12 Noroeste 0 -- -- 85
2019-12-03 04:00:00 6 8 Noroeste 14 Noroeste 0 -- -- 88
2019-12-03 03:00:00 5.8 3 Noroeste 5 Noroeste 0 -- -- 93
2019-12-03 02:00:00 6.3 0 Calma 5 Este 0 -- -- 90
2019-12-03 01:00:00 7.7 0 Calma 7 Sudeste 0 -- -- 86
2019-12-03 00:00:00 8.1 0 Calma 5 Sudeste 0 -- -- 85
2019-12-02 23:00:00 8.3 0 Calma 6 Noroeste 0 -- -- 83
2019-12-02 22:00:00 8.3 0 Calma 2 Oeste 0 -- -- 83
2019-12-02 21:00:00 8.6 0 Calma 8 Sudoeste 0 -- -- 81
2019-12-02 20:00:00 8.8 0 Calma 10 Sur 0 -- -- 79
2019-12-02 19:00:00 9 0 Calma 8 Sur 0 -- -- 77
2019-12-02 18:00:00 9.4 5 Sudoeste 15 Sur 0 -- -- 73
2019-12-02 17:00:00 9.7 10 Sur 21 Sur 0 -- -- 71
2019-12-02 16:00:00 10 12 Sur 18 Sur 0 -- -- 69
2019-12-02 15:00:00 9.7 8 Sur 17 Sur 0 -- -- 71
2019-12-02 14:00:00 9.8 12 Sur 20 Sur 0 -- -- 69
2019-12-02 13:00:00 8.7 3 Sur 7 Sur 0 -- -- 79
2019-12-02 12:00:00 7.1 2 Noroeste 5 Noroeste 0 -- -- 87
2019-12-02 11:00:00 6.6 0 Calma 7 Oeste 0.2 -- -- 87
2019-12-02 10:00:00 6.7 2 Oeste 13 Noroeste 0 -- -- 80
2019-12-02 09:00:00 6 8 Noroeste 15 Noroeste 0 -- -- 84
2019-12-02 08:00:00 5.3 8 Noroeste 13 Noroeste 0 -- -- 89
2019-12-02 07:00:00 5.2 5 Noroeste 12 Noroeste 0 -- -- 93
2019-12-02 06:00:00 5.7 5 Noroeste 11 Noroeste 0 -- -- 92
2019-12-02 05:00:00 5.8 0 Calma 7 Oeste 0 -- -- 94
2019-12-02 04:00:00 6 0 Calma 5 Oeste 0 -- -- 93
2019-12-02 03:00:00 7.3 2 Noroeste 5 Noroeste 0 -- -- 91
2019-12-02 02:00:00 7.8 0 Calma 2 Noroeste 0 -- -- 92
2019-12-02 01:00:00 8 0 Calma 4 Sudeste 0 -- -- 93
2019-12-02 00:00:00 8.3 0 Calma 6 Sur 0 -- -- 91
2019-12-01 23:00:00 8.6 3 Sur 8 Sur 0 -- -- 90
2019-12-01 22:00:00 9.1 2 Sudeste 23 Sur 0 -- -- 89
2019-12-01 21:00:00 9.7 12 Sur 21 Sur 0 -- -- 87
2019-12-01 20:00:00 9.9 9 Sur 19 Sur 0 -- -- 87
2019-12-01 19:00:00 9.9 8 Sur 21 Sudoeste 0 -- -- 86
2019-12-01 18:00:00 10.9 12 Sur 21 Sur 0 -- -- 81
2019-12-01 17:00:00 11.5 2 Nordeste 6 Sudeste 0 -- -- 53
2019-12-01 16:00:00 12.6 0 Calma 18 Noroeste 0 -- -- 48
2019-12-01 15:00:00 14.7 2 Noroeste 18 Noroeste 0 -- -- 42
2019-12-01 14:00:00 13.4 12 Noroeste 21 Noroeste 0 -- -- 47
2019-12-01 13:00:00 13.4 8 Noroeste 24 Oeste 0 -- -- 49
2019-12-01 12:00:00 12.5 7 Noroeste 14 Noroeste 0 -- -- 54
2019-12-01 11:00:00 10.6 3 Sur 6 Sur 0 -- -- 69
2019-12-01 10:00:00 8 0 Calma 9 Noroeste 0 -- -- 80
2019-12-01 09:00:00 6.3 4 Noroeste 12 Noroeste 0 -- -- 86
2019-12-01 08:00:00 7.1 0 Calma 4 Noroeste 0 -- -- 81
2019-12-01 07:00:00 8.4 0 Calma 6 Noroeste 0 -- -- 76
2019-12-01 06:00:00 8.7 4 Noroeste 9 Noroeste 0 -- -- 75
2019-12-01 05:00:00 8.8 6 Noroeste 13 Oeste 0 -- -- 72
2019-12-01 04:00:00 9 7 Noroeste 17 Norte 0 -- -- 73
2019-12-01 03:00:00 9.2 2 Norte 22 Norte 0 -- -- 73
2019-12-01 02:00:00 10 14 Noroeste 40 Noroeste 0 -- -- 73
2019-12-01 01:00:00 12.1 4 Sur 12 Oeste 0 -- -- 72
2019-12-01 00:00:00 14.1 6 Noroeste 30 Oeste 0 -- -- 64
2019-11-30 23:00:00 14.4 16 Noroeste 33 Noroeste 0 -- -- 64
2019-11-30 22:00:00 12.9 6 Oeste 29 Oeste 0 -- -- 67
2019-11-30 21:00:00 13.5 7 Este 30 Norte 0 -- -- 64
2019-11-30 20:00:00 13.5 6 Norte 21 Oeste 0 -- -- 66
2019-11-30 19:00:00 15.4 10 Noroeste 22 Oeste 0 -- -- 59
2019-11-30 18:00:00 16.8 12 Noroeste 27 Oeste 0 -- -- 55
2019-11-30 17:00:00 17.1 5 Noroeste 18 Oeste 0 -- -- 53
2019-11-30 16:00:00 18.2 0 Calma 8 Noroeste 0 -- -- 53
2019-11-30 15:00:00 19.1 5 Noroeste 14 Norte 0 -- -- 51
2019-11-30 14:00:00 18.7 7 Noroeste 14 Noroeste 0 -- -- 52
2019-11-30 13:00:00 18.1 2 Oeste 6 Noroeste 0 -- -- 56
2019-11-30 12:00:00 14.4 0 Calma 4 Noroeste 0 -- -- 66
2019-11-30 11:00:00 11.2 0 Calma 6 Norte 0 -- -- 75
2019-11-30 10:00:00 8.8 0 Calma 6 Norte 0 -- -- 85
2019-11-30 09:00:00 6.9 4 Noroeste 12 Noroeste 0 -- -- 91
2019-11-30 08:00:00 7.1 5 Noroeste 9 Noroeste 0 -- -- 91
2019-11-30 07:00:00 7.4 2 Noroeste 9 Norte 0 -- -- 90
2019-11-30 06:00:00 7.9 3 Noroeste 7 Norte 0 -- -- 89
2019-11-30 05:00:00 8.5 5 Noroeste 9 Oeste 0 -- -- 87
2019-11-30 04:00:00 9.2 3 Noroeste 6 Noroeste 0 -- -- 85
2019-11-30 03:00:00 10.1 0 Calma 7 Norte 0 -- -- 81
2019-11-30 02:00:00 10.9 3 Noroeste 6 Noroeste 0 -- -- 79
2019-11-30 01:00:00 11.2 3 Noroeste 7 Noroeste 0 -- -- 78
2019-11-30 00:00:00 11.1 0 Calma 5 Norte 0 -- -- 77
2019-11-29 23:00:00 11.2 0 Calma 4 Noroeste 0 -- -- 78
2019-11-29 22:00:00 11.9 0 Calma 4 Nordeste 0 -- -- 77
2019-11-29 21:00:00 12.4 0 Calma 5 Noroeste 0 -- -- 74
2019-11-29 20:00:00 -- -- -- -- -- -- -- -- --
2019-11-29 19:00:00 14.2 2 Sur 12 Sur 0 -- -- 65
2019-11-29 18:00:00 15.4 6 Sur 19 Sur 0 -- -- 60
2019-11-29 17:00:00 16.7 10 Sur 19 Sur 0 -- -- 56
2019-11-29 16:00:00 18.2 8 Noroeste 18 Noroeste 0 -- -- 49
2019-11-29 15:00:00 18 11 Noroeste 30 Norte 0 -- -- 51
2019-11-29 14:00:00 17.9 17 Noroeste 45 Noroeste 0 -- -- 50
2019-11-29 13:00:00 17.6 18 Noroeste 41 Noroeste 0 -- -- 52
2019-11-29 12:00:00 16.9 9 Noroeste 23 Norte 0 -- -- 59
2019-11-29 11:00:00 15.2 11 Noroeste 36 Noroeste 0 -- -- 65
2019-11-29 10:00:00 14.3 19 Noroeste 40 Norte 0 -- -- 67
2019-11-29 09:00:00 13.8 16 Noroeste 26 Noroeste 0 -- -- 67
2019-11-29 08:00:00 13.9 17 Noroeste 32 Norte 0 -- -- 66
2019-11-29 07:00:00 13.8 19 Noroeste 31 Noroeste 0 -- -- 66
2019-11-29 06:00:00 13.8 17 Noroeste 32 Noroeste 0 -- -- 65
2019-11-29 05:00:00 13.7 21 Noroeste 33 Noroeste 0 -- -- 66
2019-11-29 04:00:00 13 18 Noroeste 35 Norte 0 -- -- 68
2019-11-29 03:00:00 13.1 24 Noroeste 40 Norte 0 -- -- 68
2019-11-29 02:00:00 12.8 26 Noroeste 39 Noroeste 0 -- -- 68
2019-11-29 01:00:00 12.4 17 Noroeste 24 Noroeste 0 -- -- 68
2019-11-29 00:00:00 12.2 11 Noroeste 21 Noroeste 0 -- -- 66
2019-11-28 23:00:00 11.9 4 Noroeste 17 Noroeste 0 -- -- 64
2019-11-28 22:00:00 12.5 7 Noroeste 19 Noroeste 0 -- -- 62
2019-11-28 21:00:00 12.7 9 Noroeste 23 Noroeste 0 -- -- 60
2019-11-28 20:00:00 13 13 Noroeste 36 Noroeste 0 -- -- 59
2019-11-28 19:00:00 13.5 18 Noroeste 26 Norte 0 -- -- 60
2019-11-28 18:00:00 14.5 10 Norte 31 Norte 0 -- -- 58
2019-11-28 17:00:00 14.9 17 Noroeste 30 Noroeste 0 -- -- 58
2019-11-28 16:00:00 15.2 17 Noroeste 31 Norte 0 -- -- 57
2019-11-28 15:00:00 15.6 19 Noroeste 29 Noroeste 0 -- -- 56
2019-11-28 14:00:00 15.4 17 Noroeste 44 Noroeste 0 -- -- 55
2019-11-28 13:00:00 15.4 24 Noroeste 36 Norte 0 -- -- 54
2019-11-28 12:00:00 15.2 14 Noroeste 40 Oeste 0 -- -- 52
2019-11-28 11:00:00 14.7 9 Noroeste 31 Noroeste 0 -- -- 51
2019-11-28 10:00:00 13 13 Noroeste 26 Noroeste 0 -- -- 57
2019-11-28 09:00:00 11.9 8 Noroeste 29 Norte 0 -- -- 60
2019-11-28 08:00:00 12.1 22 Noroeste 44 Norte 0 -- -- 61
2019-11-28 07:00:00 12.2 24 Noroeste 45 Norte 0 -- -- 61
2019-11-28 06:00:00 12 26 Noroeste 56 Norte 0 -- -- 61
2019-11-28 05:00:00 11.1 11 Noroeste 21 Noroeste 0 -- -- 65
2019-11-28 04:00:00 10.7 4 Noroeste 15 Noroeste 0 -- -- 66
2019-11-28 03:00:00 11.3 5 Norte 28 Oeste 0 -- -- 63
2019-11-28 02:00:00 11.8 15 Noroeste 32 Noroeste 0 -- -- 62
2019-11-28 01:00:00 11.9 15 Noroeste 31 Noroeste 0 -- -- 60
2019-11-28 00:00:00 11.3 9 Norte 25 Noroeste 0 -- -- 62
2019-11-27 23:00:00 12.4 18 Noroeste 28 Norte 0 -- -- 57
2019-11-27 22:00:00 12.5 15 Noroeste 27 Noroeste 0 -- -- 55
2019-11-27 21:00:00 12.6 15 Noroeste 37 Noroeste 0 -- -- 55
2019-11-27 20:00:00 12.5 25 Noroeste 51 Noroeste 0 -- -- 56
2019-11-27 19:00:00 13 24 Noroeste 37 Noroeste 0 -- -- 57
2019-11-27 18:00:00 13.9 26 Noroeste 41 Noroeste 0 -- -- 52
2019-11-27 17:00:00 15 14 Noroeste 33 Noroeste 0 -- -- 49
2019-11-27 16:00:00 16.1 15 Noroeste 36 Noroeste 0 -- -- 45
2019-11-27 15:00:00 16.9 15 Noroeste 31 Noroeste 0 -- -- 45
2019-11-27 14:00:00 17 14 Noroeste 26 Noroeste 0 -- -- 45
2019-11-27 06:00:00 -- -- -- -- -- -- -- -- --
2019-11-27 05:00:00 -- -- -- -- -- -- -- -- --
2019-11-27 04:00:00 -- -- -- -- -- -- -- -- --
2019-11-27 03:00:00 15.5 13 Noroeste 30 Noroeste 0 -- -- 58
2019-11-27 02:00:00 14.1 2 Nordeste 14 Noroeste 0 -- -- 73
2019-11-27 01:00:00 15.3 7 Noroeste 27 Oeste 0 -- -- 70
2019-11-27 00:00:00 15.2 12 Noroeste 28 Noroeste 0 -- -- 71
2019-11-26 23:00:00 15.5 17 Noroeste 40 Noroeste 0 -- -- 69
2019-11-26 22:00:00 13.2 4 Norte 13 Noroeste 0 -- -- 72
2019-11-26 21:00:00 13.2 3 Nordeste 9 Norte 0 -- -- 70
2019-11-26 20:00:00 15.4 10 Noroeste 32 Noroeste 0 -- -- 63
2019-11-26 19:00:00 14.8 3 Norte 10 Noroeste 0 -- -- 64
2019-11-26 18:00:00 16.3 4 Norte 13 Noroeste 0 -- -- 60
2019-11-26 17:00:00 17.7 4 Norte 10 Noroeste 0 -- -- 56
2019-11-26 16:00:00 18.8 8 Noroeste 24 Noroeste 0 -- -- 52
2019-11-26 15:00:00 20.8 4 Noroeste 19 Noroeste 0 -- -- 44
2019-11-26 14:00:00 20.5 11 Noroeste 21 Oeste 0 -- -- 44
2019-11-26 13:00:00 19.7 5 Noroeste 12 Noroeste 0 -- -- 42
2019-11-26 12:00:00 17.4 4 Sur 7 Sur 0 -- -- 49
2019-11-26 11:00:00 13.4 0 Calma 4 Este 0 -- -- 66
2019-11-26 10:00:00 9 0 Calma 10 Noroeste 0 -- -- 80
2019-11-26 09:00:00 6.6 0 Calma 11 Noroeste 0 -- -- 88
2019-11-26 08:00:00 6.4 5 Noroeste 13 Oeste 0 -- -- 89
2019-11-26 07:00:00 5.9 0 Calma 9 Oeste 0 -- -- 88
2019-11-26 06:00:00 6.8 4 Noroeste 15 Noroeste 0 -- -- 87
2019-11-26 05:00:00 7.2 10 Noroeste 15 Norte 0 -- -- 85
2019-11-26 04:00:00 7.5 0 Calma 14 Noroeste 0 -- -- 83
2019-11-26 03:00:00 8.1 7 Noroeste 14 Noroeste 0 -- -- 81
2019-11-26 02:00:00 8.2 0 Calma 12 Noroeste 0 -- -- 79
2019-11-26 01:00:00 8.9 4 Noroeste 11 Noroeste 0 -- -- 77
2019-11-26 00:00:00 9.5 3 Noroeste 8 Noroeste 0 -- -- 76
2019-11-25 23:00:00 9.7 4 Noroeste 13 Oeste 0 -- -- 75
2019-11-25 22:00:00 10 3 Noroeste 11 Noroeste 0 -- -- 73
2019-11-25 21:00:00 10.6 0 Calma 6 Norte 0 -- -- 72
2019-11-25 20:00:00 12.5 3 Norte 6 Norte 0 -- -- 65
2019-11-25 19:00:00 14.1 0 Calma 14 Noroeste 0 -- -- 57
2019-11-25 18:00:00 15.4 11 Norte 27 Norte 0 -- -- 55
2019-11-25 17:00:00 16.3 13 Norte 35 Noroeste 0 -- -- 52
2019-11-25 16:00:00 16.5 23 Norte 45 Norte 0 -- -- 50
2019-11-25 15:00:00 17.1 29 Noroeste 47 Noroeste 0 -- -- 46
2019-11-25 14:00:00 16.7 31 Noroeste 56 Noroeste 0 -- -- 47
2019-11-25 13:00:00 16.4 19 Noroeste 42 Norte 0 -- -- 50
2019-11-25 12:00:00 15.5 17 Noroeste 34 Noroeste 0 -- -- 59
2019-11-25 11:00:00 14.8 16 Noroeste 33 Noroeste 0 -- -- 61
2019-11-25 10:00:00 13.1 0 Calma 26 Oeste 0 -- -- 67
2019-11-25 09:00:00 11.5 12 Noroeste 19 Oeste 0 -- -- 72
2019-11-25 08:00:00 8.1 4 Este 9 Sudoeste 0 -- -- 84
2019-11-25 07:00:00 9.2 0 Calma 19 Norte 0 -- -- 79
2019-11-25 06:00:00 11.5 14 Noroeste 32 Norte 0 -- -- 68
2019-11-25 05:00:00 11.3 13 Noroeste 30 Noroeste 0 -- -- 68
2019-11-25 04:00:00 10.8 6 Noroeste 36 Oeste 0 -- -- 65
2019-11-25 03:00:00 11 14 Noroeste 26 Noroeste 0 -- -- 62
2019-11-25 02:00:00 9.4 6 Norte 14 Noroeste 0 -- -- 65
2019-11-25 01:00:00 10 6 Norte 31 Noroeste 0 -- -- 60
2019-11-25 00:00:00 9.8 16 Noroeste 34 Noroeste 0 -- -- 59
2019-11-24 23:00:00 9.6 22 Noroeste 48 Noroeste 0 -- -- 59
2019-11-24 22:00:00 9.8 26 Noroeste 41 Noroeste 0 -- -- 58
2019-11-24 21:00:00 9.3 11 Noroeste 19 Oeste 0 -- -- 62
2019-11-24 20:00:00 7.8 0 Calma 5 Sur 0 -- -- 71
2019-11-24 19:00:00 9.6 0 Calma 18 Noroeste 0 -- -- 61
2019-11-24 18:00:00 11.4 11 Noroeste 22 Oeste 0 -- -- 53
2019-11-24 17:00:00 11.8 14 Noroeste 31 Noroeste 0 -- -- 53
2019-11-24 16:00:00 11.8 15 Noroeste 37 Noroeste 0 -- -- 54
2019-11-24 15:00:00 12 21 Noroeste 51 Noroeste 0 -- -- 54
2019-11-24 14:00:00 11.3 34 Noroeste 51 Noroeste 0 -- -- 53
2019-11-24 13:00:00 10.6 31 Noroeste 48 Noroeste 0 -- -- 55
2019-11-24 12:00:00 10.1 33 Noroeste 51 Noroeste 0 -- -- 58
2019-11-24 11:00:00 9.7 23 Noroeste 49 Noroeste 0 -- -- 57
2019-11-24 10:00:00 9 30 Noroeste 52 Noroeste 0 -- -- 61
2019-11-24 09:00:00 8.2 23 Noroeste 44 Oeste 0 -- -- 63
2019-11-24 08:00:00 8.2 14 Noroeste 54 Noroeste 0 -- -- 61
2019-11-24 07:00:00 8.4 28 Noroeste 52 Noroeste 0 -- -- 61
2019-11-24 06:00:00 8.8 34 Noroeste 57 Noroeste 0 -- -- 61
2019-11-24 05:00:00 8.8 26 Noroeste 55 Norte 0 -- -- 59
2019-11-24 04:00:00 9.1 39 Noroeste 72 Norte 0 -- -- 59
2019-11-24 03:00:00 9.4 39 Noroeste 69 Noroeste 0 -- -- 58
2019-11-24 02:00:00 9.4 38 Noroeste 81 Norte 0 -- -- 59
2019-11-24 01:00:00 9.8 53 Noroeste 87 Norte 0 -- -- 57
2019-11-24 00:00:00 9.8 31 Noroeste 62 Noroeste 0 -- -- 55
2019-11-23 23:00:00 9.8 23 Noroeste 49 Norte 0 -- -- 57
2019-11-23 22:00:00 9.9 29 Noroeste 50 Noroeste 0 -- -- 56
2019-11-23 21:00:00 10 22 Noroeste 49 Noroeste 0 -- -- 56
2019-11-23 20:00:00 10.3 26 Noroeste 56 Noroeste 0 -- -- 54
2019-11-23 19:00:00 10.6 29 Noroeste 60 Noroeste 0 -- -- 50
2019-11-23 18:00:00 11.1 35 Noroeste 56 Noroeste 0 -- -- 48
2019-11-23 17:00:00 11.7 31 Noroeste 62 Noroeste 0 -- -- 46
2019-11-23 16:00:00 11.4 35 Noroeste 75 Oeste 0 -- -- 49
2019-11-23 15:00:00 11.3 34 Noroeste 65 Noroeste 0 -- -- 52
2019-11-23 14:00:00 10.6 27 Noroeste 68 Noroeste 0 -- -- 58
2019-11-23 13:00:00 10.9 37 Noroeste 67 Norte 0.2 -- -- 58
2019-11-23 12:00:00 10.7 28 Noroeste 64 Noroeste 0 -- -- 63
2019-11-23 11:00:00 9.9 23 Noroeste 44 Oeste 0 -- -- 65
2019-11-23 10:00:00 7.9 27 Noroeste 49 Oeste 0 -- -- 72
2019-11-23 09:00:00 8.9 27 Noroeste 52 Noroeste 0 -- -- 68
2019-11-23 08:00:00 9.2 16 Noroeste 39 Oeste 0 -- -- 66
2019-11-23 07:00:00 9.2 21 Noroeste 48 Oeste 0 -- -- 69
2019-11-23 06:00:00 9.4 17 Noroeste 32 Noroeste 0 -- -- 68
2019-11-23 05:00:00 9.7 19 Noroeste 36 Noroeste 0 -- -- 68
2019-11-23 04:00:00 9.6 18 Noroeste 54 Noroeste 0.4 -- -- 71
2019-11-23 03:00:00 8.5 4 Norte 15 Norte 0 -- -- 82
2019-11-23 02:00:00 9.8 8 Noroeste 25 Noroeste 0 -- -- 76
2019-11-23 01:00:00 10.4 17 Noroeste 33 Noroeste 0 -- -- 74
2019-11-23 00:00:00 9 10 Noroeste 22 Noroeste 0 -- -- 97
2019-11-22 23:00:00 8.8 2 Sudoeste 7 Este 0 -- -- 97
2019-11-22 22:00:00 9.6 2 Norte 21 Sudoeste 0 -- -- 96
2019-11-22 21:00:00 10.2 17 Sur 24 Sur 0 -- -- 96
2019-11-22 20:00:00 9.9 13 Sur 22 Sur 0.2 -- -- 97
2019-11-22 19:00:00 9.2 4 Sur 8 Sur 0.4 -- -- 96
2019-11-22 18:00:00 9.4 3 Sudeste 6 Sudeste 0.2 -- -- 95
2019-11-22 17:00:00 9.7 4 Sur 8 Sudeste 1 -- -- 93
2019-11-22 16:00:00 10.6 3 Sur 9 Sudoeste 0.2 -- -- 85
2019-11-22 15:00:00 11 2 Sudoeste 7 Sur 0 -- -- 78
2019-11-22 14:00:00 9.8 0 Calma 4 Sudeste 0 -- -- 80
2019-11-22 13:00:00 8.5 0 Calma 3 Norte 0 -- -- 78
2019-11-22 12:00:00 7.9 0 Calma 5 Noroeste 0 -- -- 78
2019-11-22 11:00:00 6.9 2 Norte 6 Noroeste 0 -- -- 81
2019-11-22 10:00:00 5.8 3 Noroeste 8 Norte 0 -- -- 84
2019-11-22 09:00:00 4.6 3 Noroeste 11 Oeste 0 -- -- 89
2019-11-22 08:00:00 4.3 5 Noroeste 12 Norte 0 -- -- 90
2019-11-22 07:00:00 4.5 5 Noroeste 12 Noroeste 0 -- -- 89
2019-11-22 06:00:00 4.8 5 Noroeste 11 Oeste 0 -- -- 89
2019-11-22 05:00:00 4.8 3 Noroeste 9 Noroeste 0 -- -- 89
2019-11-22 04:00:00 5.3 5 Noroeste 10 Noroeste 0 -- -- 88
2019-11-22 03:00:00 5.7 3 Norte 6 Norte 0 -- -- 87
2019-11-22 02:00:00 6.3 0 Calma 9 Noroeste 0 -- -- 85
2019-11-22 01:00:00 6.6 0 Calma 6 Norte 0 -- -- 82
2019-11-22 00:00:00 7.3 0 Calma 3 Norte 0 -- -- 78
2019-11-21 23:00:00 8.3 0 Calma 6 Noroeste 0 -- -- 75
2019-11-21 22:00:00 8.9 0 Calma 6 Oeste 0 -- -- 72
2019-11-21 21:00:00 9 0 Calma 4 Norte 0 -- -- 75
2019-11-21 20:00:00 9.2 0 Calma 3 Norte 0 -- -- 71
2019-11-21 19:00:00 9.9 0 Calma 4 Nordeste 0 -- -- 65
2019-11-21 18:00:00 10.8 0 Calma 3 Sudeste 0 -- -- 62
2019-11-21 17:00:00 12.2 0 Calma 5 Oeste 0 -- -- 58
2019-11-21 16:00:00 12.6 2 Sudoeste 9 Noroeste 0 -- -- 54
2019-11-21 15:00:00 12.6 3 Oeste 16 Noroeste 0 -- -- 53
2019-11-21 14:00:00 12.3 6 Norte 18 Oeste 0 -- -- 54
2019-11-21 13:00:00 12.1 10 Noroeste 21 Noroeste 0 -- -- 54
2019-11-21 12:00:00 12 7 Noroeste 18 Noroeste 0 -- -- 55
2019-11-21 11:00:00 10.3 0 Calma 7 Este 0 -- -- 62
2019-11-21 10:00:00 6.7 0 Calma 6 Oeste 0 -- -- 82
2019-11-21 09:00:00 4.4 0 Calma 6 Norte 0 -- -- 93
2019-11-21 08:00:00 3.4 0 Calma 5 Norte 0 -- -- 94
2019-11-21 07:00:00 3.8 0 Calma 12 Oeste 0 -- -- 92
2019-11-21 06:00:00 4.6 0 Calma 10 Noroeste 0 -- -- 91
2019-11-21 05:00:00 4.7 5 Noroeste 9 Noroeste 0 -- -- 94
2019-11-21 04:00:00 3.5 0 Calma 4 Sudeste 0 -- -- 93
2019-11-21 03:00:00 4.1 0 Calma 3 Sudoeste 0 -- -- 90
2019-11-21 02:00:00 5.2 0 Calma 5 Oeste 0 -- -- 87
2019-11-21 01:00:00 6.2 2 Oeste 9 Noroeste 0 -- -- 85
2019-11-21 00:00:00 6.8 4 Noroeste 9 Oeste 0 -- -- 83
2019-11-20 23:00:00 7 2 Noroeste 6 Noroeste 0 -- -- 82
2019-11-20 22:00:00 6.9 0 Calma 3 Sudoeste 0 -- -- 83
2019-11-20 21:00:00 7.1 0 Calma 6 Norte 0 -- -- 81
2019-11-20 20:00:00 7 0 Calma 2 Oeste 0 -- -- 82
2019-11-20 19:00:00 7.3 2 Sudeste 17 Sudoeste 0 -- -- 78
2019-11-20 18:00:00 8.6 10 Sur 22 Sur 0 -- -- 73
2019-11-20 17:00:00 10 8 Sur 20 Sur 0 -- -- 68
2019-11-20 16:00:00 11.3 9 Sur 22 Sur 0 -- -- 58
2019-11-20 15:00:00 13.3 10 Sur 17 Sur 0 -- -- 46
2019-11-20 14:00:00 12.9 6 Sur 13 Sur 0 -- -- 46
2019-11-20 13:00:00 10.7 3 Oeste 7 Oeste 0 -- -- 53
2019-11-20 12:00:00 8.5 2 Noroeste 4 Noroeste 0 -- -- 61
2019-11-20 11:00:00 5.5 2 Norte 6 Norte 0 -- -- 69
2019-11-20 10:00:00 3 4 Noroeste 13 Noroeste 0 -- -- 77
2019-11-20 09:00:00 1.5 6 Norte 14 Norte 0 -- -- 82
2019-11-20 08:00:00 1.4 8 Noroeste 15 Noroeste 0 -- -- 83
2019-11-20 07:00:00 1.6 6 Norte 14 Noroeste 0 -- -- 82
2019-11-20 06:00:00 1.8 8 Noroeste 14 Noroeste 0 -- -- 82
2019-11-20 05:00:00 2.1 7 Noroeste 13 Noroeste 0 -- -- 80
2019-11-20 04:00:00 2.5 6 Norte 13 Noroeste 0 -- -- 78
2019-11-20 03:00:00 2.7 8 Noroeste 14 Noroeste 0 -- -- 79
2019-11-20 02:00:00 3 5 Norte 12 Noroeste 0 -- -- 76
2019-11-20 01:00:00 3.5 5 Noroeste 10 Noroeste 0 -- -- 75
2019-11-20 00:00:00 3.7 7 Noroeste 13 Noroeste 0 -- -- 72
2019-11-19 23:00:00 4.2 5 Noroeste 13 Noroeste 0 -- -- 71
2019-11-19 22:00:00 4.8 4 Noroeste 11 Oeste 0 -- -- 71
2019-11-19 21:00:00 5.2 3 Oeste 6 Noroeste 0 -- -- 70
2019-11-19 20:00:00 5.7 0 Calma 7 Este 0 -- -- 64
2019-11-19 19:00:00 7.1 0 Calma 9 Sudeste 0 -- -- 60
2019-11-19 18:00:00 8.9 5 Sudeste 13 Noroeste 0 -- -- 52
2019-11-19 17:00:00 10.5 8 Noroeste 24 Noroeste 0 -- -- 46
2019-11-19 16:00:00 10.9 14 Noroeste 26 Oeste 0 -- -- 47
2019-11-19 15:00:00 11.7 12 Noroeste 37 Oeste 0 -- -- 46
2019-11-19 14:00:00 10.9 22 Noroeste 41 Noroeste 0 -- -- 45
2019-11-19 13:00:00 10.5 17 Noroeste 32 Noroeste 0 -- -- 50
2019-11-19 12:00:00 9.6 10 Noroeste 24 Norte 0 -- -- 53
2019-11-19 11:00:00 8.2 7 Noroeste 14 Noroeste 0 -- -- 55
2019-11-19 10:00:00 6.1 7 Norte 20 Norte 0 -- -- 62
2019-11-19 09:00:00 4.2 13 Norte 23 Noroeste 0 -- -- 69
2019-11-19 08:00:00 3.6 6 Noroeste 12 Noroeste 0 -- -- 71
2019-11-19 07:00:00 3.6 0 Calma 16 Oeste 0 -- -- 71
2019-11-19 06:00:00 4.3 8 Noroeste 20 Oeste 0 -- -- 67
2019-11-19 05:00:00 4.5 8 Noroeste 17 Noroeste 0 -- -- 67
2019-11-19 04:00:00 4.8 8 Noroeste 17 Norte 0 -- -- 67
2019-11-19 03:00:00 5.1 6 Noroeste 21 Noroeste 0 -- -- 65
2019-11-19 02:00:00 5.5 8 Noroeste 33 Norte 0 -- -- 63
2019-11-19 01:00:00 5.7 12 Noroeste 30 Oeste 0 -- -- 59
2019-11-19 00:00:00 6.2 14 Noroeste 29 Noroeste 0 -- -- 60
2019-11-18 23:00:00 6.3 13 Noroeste 31 Noroeste 0 -- -- 62
2019-11-18 22:00:00 6.7 13 Noroeste 31 Noroeste 0 -- -- 61
2019-11-18 21:00:00 7.5 15 Noroeste 32 Oeste 0 -- -- 56
2019-11-18 20:00:00 7.7 18 Noroeste 31 Noroeste 0 -- -- 53
2019-11-18 19:00:00 8.1 13 Noroeste 38 Noroeste 0 -- -- 51
2019-11-18 18:00:00 8.6 22 Noroeste 36 Noroeste 0 -- -- 53
2019-11-18 17:00:00 9 22 Noroeste 42 Noroeste 0 -- -- 50
2019-11-18 16:00:00 9.3 24 Noroeste 44 Noroeste 0 -- -- 52
2019-11-18 15:00:00 10.2 22 Noroeste 40 Noroeste 0 -- -- 47
2019-11-18 14:00:00 10 27 Noroeste 40 Noroeste 0 -- -- 47
2019-11-18 13:00:00 9.5 24 Noroeste 50 Noroeste 0 -- -- 50
2019-11-18 12:00:00 9.2 27 Noroeste 49 Noroeste 0 -- -- 51
2019-11-18 11:00:00 9.1 20 Noroeste 45 Oeste 0 -- -- 52
2019-11-18 10:00:00 8.4 21 Noroeste 38 Oeste 0 -- -- 59
2019-11-18 09:00:00 7.7 15 Noroeste 28 Oeste 0 -- -- 65
2019-11-18 08:00:00 6.9 10 Noroeste 35 Noroeste 0 -- -- 72
2019-11-18 07:00:00 7 15 Noroeste 28 Noroeste 0 -- -- 69
2019-11-18 06:00:00 7.3 13 Noroeste 23 Norte 0 -- -- 71
2019-11-18 05:00:00 7.3 9 Noroeste 30 Noroeste 0 -- -- 70
2019-11-18 04:00:00 7.2 10 Noroeste 20 Noroeste 0 -- -- 75
2019-11-18 03:00:00 6.9 8 Noroeste 12 Noroeste 0 -- -- 83
2019-11-18 02:00:00 6.7 2 Sudeste 19 Noroeste 0.4 -- -- 88
2019-11-18 01:00:00 7.3 0 Calma 3 Sur 0 -- -- 78
2019-11-18 00:00:00 7.7 0 Calma 8 Sudeste 0 -- -- 73
2019-11-17 23:00:00 8.2 4 Sudeste 7 Sudeste 0 -- -- 70
2019-11-17 22:00:00 8.6 4 Noroeste 7 Noroeste 0 -- -- 72
2019-11-17 21:00:00 9.4 3 Noroeste 9 Noroeste 0 -- -- 65
2019-11-17 20:00:00 9.6 5 Noroeste 23 Noroeste 0 -- -- 64
2019-11-17 19:00:00 10.2 13 Noroeste 35 Norte 0 -- -- 62
2019-11-17 18:00:00 11.2 19 Noroeste 40 Noroeste 0 -- -- 62
2019-11-17 17:00:00 11.8 14 Noroeste 39 Norte 0 -- -- 58
2019-11-17 16:00:00 12.8 20 Noroeste 36 Oeste 0 -- -- 53
2019-11-17 15:00:00 13.6 15 Noroeste 37 Norte 0 -- -- 49
2019-11-17 14:00:00 13.2 18 Noroeste 34 Noroeste 0 -- -- 49
2019-11-17 13:00:00 11.5 15 Noroeste 36 Oeste 0 -- -- 49
2019-11-17 12:00:00 9.3 12 Noroeste 33 Norte 0 -- -- 54
2019-11-17 11:00:00 7.4 13 Noroeste 38 Noroeste 0 -- -- 59
2019-11-17 10:00:00 7.6 22 Noroeste 40 Noroeste 0 -- -- 58
2019-11-17 09:00:00 6.2 20 Norte 31 Noroeste 0 -- -- 58
2019-11-17 08:00:00 5.9 18 Noroeste 35 Norte 0 -- -- 62
2019-11-17 07:00:00 5.8 17 Noroeste 28 Noroeste 0 -- -- 63
2019-11-17 06:00:00 6 18 Noroeste 35 Noroeste 0 -- -- 61
2019-11-17 05:00:00 5.8 14 Noroeste 37 Noroeste 0 -- -- 62
2019-11-17 04:00:00 6.2 22 Noroeste 32 Noroeste 0 -- -- 60
2019-11-17 03:00:00 5.9 16 Noroeste 30 Noroeste 0 -- -- 61
2019-11-17 02:00:00 6.4 17 Noroeste 30 Norte 0 -- -- 61
2019-11-17 01:00:00 6.5 13 Norte 30 Norte 0 -- -- 59
2019-11-17 00:00:00 6.8 13 Noroeste 25 Noroeste 0 -- -- 56
2019-11-16 23:00:00 7.2 9 Noroeste 22 Noroeste 0 -- -- 54
2019-11-16 22:00:00 7.1 10 Noroeste 24 Noroeste 0 -- -- 56
2019-11-16 21:00:00 6.9 4 Noroeste 22 Oeste 0 -- -- 61
2019-11-16 20:00:00 7.8 14 Noroeste 26 Oeste 0 -- -- 58
2019-11-16 19:00:00 8 6 Noroeste 20 Noroeste 0 -- -- 55
2019-11-16 18:00:00 9.2 15 Noroeste 37 Noroeste 0 -- -- 49
2019-11-16 17:00:00 9.8 15 Noroeste 32 Oeste 0 -- -- 46
2019-11-16 16:00:00 10 18 Noroeste 38 Noroeste 0 -- -- 41
2019-11-16 15:00:00 10.8 21 Noroeste 35 Oeste 0 -- -- 42
2019-11-16 14:00:00 11.2 15 Noroeste 30 Oeste 0 -- -- 38
2019-11-16 13:00:00 10.9 8 Oeste 32 Oeste 0 -- -- 38
2019-11-16 12:00:00 9.3 16 Oeste 28 Oeste 0 -- -- 46
2019-11-16 11:00:00 7.8 17 Noroeste 32 Oeste 0 -- -- 52
2019-11-16 10:00:00 6.3 15 Noroeste 28 Noroeste 0 -- -- 59
2019-11-16 09:00:00 4.1 8 Noroeste 19 Noroeste 0 -- -- 71
2019-11-16 08:00:00 3.5 11 Norte 19 Norte 0 -- -- 78
2019-11-16 07:00:00 4.5 10 Noroeste 17 Noroeste 0 -- -- 73
2019-11-16 06:00:00 3.6 5 Noroeste 11 Noroeste 0 -- -- 80
2019-11-16 05:00:00 4.9 6 Noroeste 17 Noroeste 0 -- -- 71
2019-11-16 04:00:00 5 7 Noroeste 15 Noroeste 0 -- -- 71
2019-11-16 03:00:00 3.9 0 Calma 14 Noroeste 0 -- -- 77
2019-11-16 02:00:00 4.9 2 Noroeste 19 Noroeste 0 -- -- 72
2019-11-16 01:00:00 6.4 10 Noroeste 23 Noroeste 0 -- -- 64
2019-11-16 00:00:00 6.5 3 Oeste 21 Noroeste 0 -- -- 67
2019-11-15 23:00:00 7.2 11 Noroeste 21 Oeste 0 -- -- 61
2019-11-15 22:00:00 7.2 5 Noroeste 22 Noroeste 0 -- -- 60
2019-11-15 21:00:00 7.5 9 Noroeste 27 Noroeste 0 -- -- 60
2019-11-15 20:00:00 7.5 12 Norte 24 Noroeste 0 -- -- 63
2019-11-15 19:00:00 7.9 11 Noroeste 34 Oeste 0 -- -- 62
2019-11-15 18:00:00 8.9 15 Noroeste 31 Noroeste 0 -- -- 53
2019-11-15 17:00:00 9.5 14 Norte 29 Noroeste 0 -- -- 50
2019-11-15 16:00:00 9.8 11 Noroeste 30 Noroeste 0 -- -- 51
2019-11-15 15:00:00 9.5 22 Noroeste 38 Noroeste 0 -- -- 52
2019-11-15 14:00:00 9.9 15 Noroeste 33 Oeste 0 -- -- 53
2019-11-15 13:00:00 8.8 20 Noroeste 36 Oeste 0 -- -- 54
2019-11-15 12:00:00 7.5 14 Noroeste 30 Oeste 0 -- -- 60
2019-11-15 11:00:00 6.5 19 Noroeste 41 Oeste 0 -- -- 62
2019-11-15 10:00:00 6.4 18 Noroeste 31 Noroeste 0 -- -- 63
2019-11-15 09:00:00 5 15 Noroeste 41 Noroeste 0 -- -- 66
2019-11-15 08:00:00 5.1 19 Noroeste 37 Norte 0.2 -- -- 67
2019-11-15 07:00:00 5.4 17 Noroeste 31 Noroeste 0 -- -- 69
2019-11-15 06:00:00 5.2 17 Noroeste 32 Noroeste 0 -- -- 74
2019-11-15 05:00:00 5.4 17 Noroeste 27 Noroeste 0 -- -- 71
2019-11-15 04:00:00 5.4 15 Noroeste 29 Oeste 0 -- -- 70
2019-11-15 03:00:00 5.2 11 Noroeste 30 Noroeste 0 -- -- 72
2019-11-15 02:00:00 5.2 18 Noroeste 31 Noroeste 0 -- -- 75
2019-11-15 01:00:00 4.6 15 Noroeste 29 Noroeste 0 -- -- 85
2019-11-15 00:00:00 4.1 5 Norte 18 Noroeste 1.4 -- -- 91